Time;durP1;ratioP1;P1;durP2;ratioP2;P2;SDS_P1;SDS_P2;PMS_P1;PMS_P2;Temp;Humidity;BMP_temperature;BMP_pressure;BME280_temperature;BME280_humidity;BME280_pressure;Samples;Min_cycle;Max_cycle;Signal;HPM_P1;HPM_P2
2023/11/03 00:00:32;;;;;;;1.00;0.90;;;6.00;99.90;;;;;;4954080;28;20595;-67
2023/11/03 00:03:02;;;;;;;1.38;1.05;;;5.90;99.90;;;;;;4953978;28;20222;-67
2023/11/03 00:05:29;;;;;;;4.30;1.00;;;5.90;99.90;;;;;;4953767;28;20243;-67
2023/11/03 00:07:56;;;;;;;3.53;1.13;;;5.90;99.90;;;;;;4953721;28;20218;-67
2023/11/03 00:10:22;;;;;;;1.65;1.40;;;5.90;99.90;;;;;;4953977;28;20210;-67
2023/11/03 00:12:49;;;;;;;1.33;0.90;;;5.80;99.90;;;;;;4954019;28;20205;-67
2023/11/03 04:31:32;;;;;;;1.50;0.77;;;5.20;99.90;;;;;;5649307;23;20232;-66
2023/11/03 04:33:59;;;;;;;1.10;1.00;;;5.20;99.90;;;;;;4989673;28;20202;-65
2023/11/03 04:36:26;;;;;;;2.15;0.90;;;5.30;99.90;;;;;;4991980;28;20298;-65
2023/11/03 04:38:53;;;;;;;1.58;0.90;;;5.30;99.90;;;;;;4992161;28;20213;-65
2023/11/03 04:41:20;;;;;;;1.20;0.80;;;5.30;99.90;;;;;;4992089;28;20723;-66
2023/11/03 04:43:47;;;;;;;1.92;1.00;;;5.40;99.90;;;;;;4992149;28;20618;-66
2023/11/03 04:46:14;;;;;;;2.95;1.30;;;5.40;99.90;;;;;;4991723;28;20220;-66
2023/11/03 04:48:44;;;;;;;3.75;1.40;;;5.40;99.90;;;;;;4991905;28;20210;-66
2023/11/03 04:51:11;;;;;;;2.58;0.90;;;5.40;99.90;;;;;;4991838;28;20226;-67
2023/11/03 04:53:38;;;;;;;1.88;1.00;;;5.40;99.90;;;;;;4991901;28;20221;-66
2023/11/03 04:56:05;;;;;;;1.40;1.10;;;5.40;99.90;;;;;;4991523;28;20270;-66
2023/11/03 04:58:31;;;;;;;1.75;1.08;;;5.50;99.90;;;;;;4991648;28;20208;-66
2023/11/03 05:00:58;;;;;;;2.60;1.30;;;5.50;99.90;;;;;;4991655;28;20599;-66
2023/11/03 05:03:25;;;;;;;1.10;1.00;;;5.50;99.90;;;;;;4991852;28;20236;-66
2023/11/03 05:05:53;;;;;;;6.38;2.17;;;5.50;99.90;;;;;;4991648;28;20212;-66
2023/11/03 05:08:20;;;;;;;3.22;1.15;;;5.60;99.90;;;;;;4991238;28;20208;-67
2023/11/03 05:10:47;;;;;;;1.42;1.27;;;5.60;99.90;;;;;;4991638;28;20240;-67
2023/11/03 05:13:15;;;;;;;1.73;1.38;;;5.60;99.90;;;;;;4991559;28;20231;-67
2023/11/03 05:15:42;;;;;;;1.77;0.85;;;5.60;99.90;;;;;;4991631;28;20592;-67
2023/11/03 05:18:10;;;;;;;1.83;1.00;;;5.70;99.90;;;;;;4991071;28;20211;-66
2023/11/03 05:20:37;;;;;;;6.22;1.42;;;5.70;99.90;;;;;;4991487;28;20614;-66
2023/11/03 05:23:05;;;;;;;2.72;1.75;;;5.70;99.90;;;;;;4991146;28;20228;-66
2023/11/03 05:25:32;;;;;;;1.83;1.30;;;5.70;99.90;;;;;;4991370;28;20212;-65
2023/11/03 05:27:59;;;;;;;0.95;0.85;;;5.70;99.90;;;;;;4991152;28;20216;-66
2023/11/03 05:30:25;;;;;;;2.00;1.15;;;5.70;99.90;;;;;;4990660;28;20209;-66
2023/11/03 05:32:52;;;;;;;2.80;1.20;;;5.80;99.90;;;;;;4991356;28;20219;-66
2023/11/03 05:35:19;;;;;;;1.60;0.93;;;5.80;99.90;;;;;;4991084;28;20215;-65
2023/11/03 05:37:47;;;;;;;4.75;1.58;;;5.80;99.90;;;;;;4991065;28;20232;-66
2023/11/03 05:40:15;;;;;;;5.90;1.15;;;5.80;99.90;;;;;;4991306;28;20308;-66
2023/11/03 05:42:42;;;;;;;2.00;1.50;;;5.80;99.90;;;;;;4991586;28;20210;-66
2023/11/03 05:45:09;;;;;;;1.10;0.88;;;5.90;99.90;;;;;;4990843;28;20225;-65
2023/11/03 05:47:36;;;;;;;1.63;1.10;;;5.90;99.90;;;;;;4991132;28;20228;-66
2023/11/03 05:50:04;;;;;;;1.70;1.30;;;5.90;99.90;;;;;;4991140;28;20713;-65
2023/11/03 05:52:31;;;;;;;1.33;1.15;;;5.90;99.90;;;;;;4991248;28;20255;-66
2023/11/03 05:54:58;;;;;;;1.65;1.20;;;5.90;99.90;;;;;;4991309;28;20197;-66
2023/11/03 05:57:27;;;;;;;1.70;1.25;;;5.90;99.90;;;;;;4990647;28;20212;-66
2023/11/03 05:59:53;;;;;;;1.67;1.05;;;5.90;99.90;;;;;;4991307;28;20204;-66
2023/11/03 06:02:20;;;;;;;3.35;0.98;;;5.90;99.90;;;;;;4991370;28;20235;-66
2023/11/03 06:04:47;;;;;;;1.17;0.95;;;5.90;99.90;;;;;;4991151;28;20224;-66
2023/11/03 06:07:14;;;;;;;1.70;1.10;;;5.90;99.90;;;;;;4991062;28;20607;-66
2023/11/03 06:09:41;;;;;;;3.28;1.38;;;5.90;99.90;;;;;;4991384;28;20650;-66
2023/11/03 06:12:08;;;;;;;1.17;1.05;;;6.00;99.90;;;;;;4990806;28;20233;-65
2023/11/03 06:14:36;;;;;;;0.80;0.70;;;6.00;99.90;;;;;;4992352;28;20205;-66
2023/11/03 06:17:03;;;;;;;2.08;1.10;;;6.00;99.90;;;;;;4994514;28;20228;-66
2023/11/03 06:19:30;;;;;;;1.20;1.00;;;6.00;99.90;;;;;;4994944;28;20203;-67
2023/11/03 06:21:57;;;;;;;1.25;1.00;;;6.00;99.90;;;;;;4994651;28;20232;-68
2023/11/03 06:24:23;;;;;;;2.80;1.25;;;6.00;99.90;;;;;;4994826;28;20731;-71
2023/11/03 06:26:50;;;;;;;1.77;1.20;;;6.00;99.90;;;;;;4994073;28;20231;-68
2023/11/03 06:29:17;;;;;;;1.95;1.00;;;6.00;99.90;;;;;;4977439;28;20210;-69
2023/11/03 06:31:45;;;;;;;2.00;1.20;;;6.00;99.90;;;;;;4975440;28;20234;-71
2023/11/03 06:34:11;;;;;;;1.58;1.20;;;6.00;99.90;;;;;;4975199;28;20217;-68
2023/11/03 06:36:38;;;;;;;3.50;1.45;;;6.00;99.90;;;;;;4983163;28;20297;-68
2023/11/03 06:39:05;;;;;;;1.10;0.93;;;6.00;99.90;;;;;;4975275;28;20201;-68
2023/11/03 06:41:31;;;;;;;3.72;1.30;;;6.00;99.90;;;;;;4977379;28;20228;-71
2023/11/03 06:43:58;;;;;;;1.30;0.95;;;6.00;99.90;;;;;;4993762;28;20701;-71
2023/11/03 06:46:25;;;;;;;1.02;0.90;;;6.10;99.90;;;;;;4994479;28;20206;-72
2023/11/03 06:48:53;;;;;;;4.80;1.00;;;6.10;99.90;;;;;;4994420;28;20212;-65
2023/11/03 06:51:19;;;;;;;1.70;0.90;;;6.10;99.90;;;;;;4994168;28;20588;-65
2023/11/03 06:53:47;;;;;;;3.28;1.38;;;6.10;99.90;;;;;;4994069;28;20197;-66
2023/11/03 06:56:13;;;;;;;2.75;0.90;;;6.10;99.90;;;;;;4993623;28;20230;-66
2023/11/03 06:58:40;;;;;;;2.10;1.13;;;6.10;99.90;;;;;;4993749;28;20210;-66
2023/11/03 07:01:08;;;;;;;4.60;1.00;;;6.20;99.90;;;;;;4993836;28;20232;-66
2023/11/03 07:03:35;;;;;;;1.25;0.98;;;6.10;99.90;;;;;;4986111;28;21151;-66
2023/11/03 07:06:04;;;;;;;1.90;1.15;;;6.10;99.90;;;;;;4993880;28;20304;-65
2023/11/03 07:08:31;;;;;;;3.40;1.20;;;6.10;99.90;;;;;;4993479;28;20205;-68
2023/11/03 07:10:59;;;;;;;1.70;1.13;;;6.10;99.90;;;;;;4993766;28;20666;-68
2023/11/03 07:13:25;;;;;;;2.65;1.10;;;6.10;99.90;;;;;;4993674;28;20301;-67
2023/11/03 07:15:52;;;;;;;1.10;0.90;;;6.10;99.90;;;;;;4993616;28;20669;-67
2023/11/03 07:18:19;;;;;;;1.35;1.00;;;6.20;99.90;;;;;;4992298;28;20217;-67
2023/11/03 07:20:45;;;;;;;1.40;1.15;;;6.20;99.90;;;;;;4992774;28;20224;-67
2023/11/03 07:23:15;;;;;;;1.45;1.10;;;6.20;99.90;;;;;;4991993;28;20210;-71
2023/11/03 07:25:41;;;;;;;1.10;1.00;;;6.20;99.90;;;;;;4991286;28;20284;-69
2023/11/03 07:28:09;;;;;;;1.10;1.00;;;6.20;99.90;;;;;;4991826;28;20202;-70
2023/11/03 07:30:37;;;;;;;2.22;1.40;;;6.20;99.90;;;;;;4992124;28;20220;-70
2023/11/03 07:33:03;;;;;;;3.53;1.38;;;6.30;99.90;;;;;;4992288;28;20212;-70
2023/11/03 07:35:30;;;;;;;6.40;1.70;;;6.30;99.90;;;;;;4991105;28;20690;-65
2023/11/03 07:37:57;;;;;;;2.95;1.48;;;6.30;99.90;;;;;;4991475;28;20206;-66
2023/11/03 07:40:25;;;;;;;3.40;1.60;;;6.30;99.90;;;;;;4990725;28;20220;-66
2023/11/03 07:42:52;;;;;;;1.65;1.10;;;6.30;99.90;;;;;;4991767;28;20263;-66
2023/11/03 07:45:19;;;;;;;2.22;1.25;;;6.30;99.90;;;;;;4990385;28;20713;-66
2023/11/03 07:47:45;;;;;;;4.72;1.33;;;6.30;99.90;;;;;;4991713;28;20287;-73
2023/11/03 07:50:13;;;;;;;3.05;1.98;;;6.30;99.90;;;;;;4991116;28;20703;-66
2023/11/03 07:52:40;;;;;;;1.38;1.00;;;6.30;99.90;;;;;;4984648;28;20666;-69
2023/11/03 07:55:08;;;;;;;1.10;1.00;;;6.30;99.90;;;;;;4991152;28;20210;-71
2023/11/03 07:57:38;;;;;;;1.02;0.80;;;6.40;99.90;;;;;;4992057;28;22044;-72
2023/11/03 08:00:09;;;;;;;4.63;1.20;;;6.50;99.90;;;;;;4993035;28;20216;-66
2023/11/03 08:02:37;;;;;;;1.80;1.25;;;6.60;99.90;;;;;;4992500;28;20228;-70
2023/11/03 08:05:04;;;;;;;1.70;1.30;;;6.70;99.90;;;;;;4992845;28;20741;-69
2023/11/03 08:07:30;;;;;;;1.75;1.00;;;6.80;99.90;;;;;;4992217;28;20212;-70
2023/11/03 08:09:57;;;;;;;1.75;1.17;;;6.80;99.90;;;;;;4992821;28;20200;-70
2023/11/03 08:12:25;;;;;;;3.45;1.17;;;6.80;99.90;;;;;;4992609;28;20241;-69
2023/11/03 08:14:55;;;;;;;3.13;1.27;;;6.80;99.90;;;;;;4992775;28;20208;-68
2023/11/03 08:17:21;;;;;;;1.60;1.10;;;6.80;99.90;;;;;;4991939;28;20205;-68
2023/11/03 08:19:50;;;;;;;2.45;1.23;;;6.70;99.90;;;;;;4992635;28;20213;-68
2023/11/03 08:22:16;;;;;;;1.92;1.10;;;6.70;99.90;;;;;;4992519;28;20288;-69
2023/11/03 08:24:43;;;;;;;1.33;0.90;;;6.70;99.90;;;;;;4992529;28;20242;-70
2023/11/03 08:27:10;;;;;;;0.80;0.70;;;6.70;99.90;;;;;;4992793;28;20210;-70
2023/11/03 08:29:37;;;;;;;1.75;1.13;;;6.70;99.90;;;;;;4994952;28;20207;-71
2023/11/03 08:32:10;;;;;;;2.35;1.42;;;6.80;99.90;;;;;;4992249;28;20265;-71
2023/11/03 08:34:36;;;;;;;3.15;1.42;;;6.80;99.90;;;;;;4994781;28;20734;-71
2023/11/03 08:37:03;;;;;;;1.10;0.85;;;6.80;99.90;;;;;;4995638;28;20217;-72
2023/11/03 08:39:30;;;;;;;2.08;0.98;;;6.90;99.90;;;;;;4993577;28;20207;-67
2023/11/03 08:41:56;;;;;;;2.95;0.95;;;7.00;99.90;;;;;;4992257;28;20337;-67
2023/11/03 08:44:23;;;;;;;1.25;1.00;;;7.00;99.90;;;;;;4991933;28;20235;-67
2023/11/03 08:46:50;;;;;;;1.40;1.10;;;7.00;99.90;;;;;;4991857;28;20199;-66
2023/11/03 08:49:18;;;;;;;3.30;1.33;;;7.10;99.90;;;;;;4992083;28;20633;-68
2023/11/03 08:51:45;;;;;;;1.33;0.85;;;7.10;99.90;;;;;;4990074;28;20258;-67
2023/11/03 08:54:11;;;;;;;1.25;1.15;;;7.10;99.90;;;;;;4988195;28;20588;-70
2023/11/03 08:56:38;;;;;;;1.77;0.90;;;7.20;99.90;;;;;;4987443;28;20208;-67
2023/11/03 08:59:05;;;;;;;1.50;0.90;;;7.20;99.90;;;;;;4988393;28;20596;-67
2023/11/03 09:01:33;;;;;;;2.50;1.35;;;7.30;99.90;;;;;;4986369;28;20227;-67
2023/11/03 09:04:01;;;;;;;1.20;1.10;;;7.30;99.90;;;;;;4988239;28;20229;-67
2023/11/03 09:06:29;;;;;;;2.47;1.20;;;7.30;99.90;;;;;;4985895;28;20598;-67
2023/11/03 09:08:56;;;;;;;1.70;1.00;;;7.30;99.90;;;;;;4988018;28;20285;-67
2023/11/03 09:11:23;;;;;;;1.00;0.82;;;7.30;99.90;;;;;;4986086;28;20319;-70
2023/11/03 09:13:54;;;;;;;1.20;1.08;;;7.40;99.90;;;;;;4988057;28;20214;-70
2023/11/03 09:16:21;;;;;;;2.25;1.00;;;7.40;99.90;;;;;;4986111;28;20211;-70
2023/11/03 09:18:48;;;;;;;2.28;1.08;;;7.40;99.90;;;;;;4981930;28;20211;-70
2023/11/03 09:21:15;;;;;;;1.05;0.90;;;7.40;99.90;;;;;;4986769;28;20783;-71
2023/11/03 09:23:43;;;;;;;1.40;1.30;;;7.40;99.90;;;;;;4988887;28;20255;-73
2023/11/03 09:26:10;;;;;;;2.67;1.00;;;7.40;99.90;;;;;;4987811;28;20241;-70
2023/11/03 09:28:38;;;;;;;1.98;1.00;;;7.40;99.90;;;;;;4985920;28;20314;-67
2023/11/03 09:31:06;;;;;;;2.53;0.88;;;7.40;99.90;;;;;;4987159;28;20928;-66
2023/11/03 09:33:33;;;;;;;1.20;1.10;;;7.40;99.90;;;;;;4989460;28;20207;-66
2023/11/03 09:36:00;;;;;;;4.05;1.17;;;7.40;99.90;;;;;;4991242;28;20198;-67
2023/11/03 09:38:26;;;;;;;2.22;1.17;;;7.40;99.90;;;;;;4990806;28;20703;-67
2023/11/03 09:40:55;;;;;;;1.52;1.00;;;7.50;99.90;;;;;;4990961;28;20222;-66
2023/11/03 09:43:22;;;;;;;1.05;0.90;;;7.50;99.90;;;;;;4989096;28;20214;-67
2023/11/03 09:45:49;;;;;;;1.00;0.90;;;7.60;99.90;;;;;;4986136;28;20269;-68
2023/11/03 09:48:19;;;;;;;1.17;1.08;;;7.60;99.90;;;;;;4985985;28;20205;-66
2023/11/03 09:50:48;;;;;;;2.55;1.00;;;7.60;99.90;;;;;;4988776;28;24170;-66
2023/11/03 09:53:22;;;;;;;1.30;1.13;;;7.70;99.90;;;;;;4989625;28;20207;-66
2023/11/03 09:55:49;;;;;;;2.60;1.15;;;7.80;99.90;;;;;;4984698;28;20200;-67
2023/11/03 09:58:16;;;;;;;3.17;1.00;;;7.80;99.90;;;;;;4986551;28;20214;-70
2023/11/03 10:00:44;;;;;;;1.35;1.02;;;7.80;99.90;;;;;;4994070;28;20228;-73
2023/11/03 10:03:12;;;;;;;1.10;1.00;;;7.80;99.90;;;;;;4994060;28;20215;-70
2023/11/03 10:05:39;;;;;;;1.50;1.17;;;7.80;99.90;;;;;;4991013;28;20227;-65
2023/11/03 10:08:08;;;;;;;1.00;0.90;;;7.80;99.90;;;;;;4982027;28;20258;-66
2023/11/03 10:10:36;;;;;;;1.15;1.05;;;7.90;99.90;;;;;;4981639;28;20227;-66
2023/11/03 10:13:04;;;;;;;1.15;1.05;;;7.90;99.90;;;;;;4994647;28;20200;-64
2023/11/03 10:15:32;;;;;;;2.45;0.93;;;7.90;99.90;;;;;;4994534;28;20315;-69
2023/11/03 10:18:01;;;;;;;2.65;1.40;;;8.00;99.90;;;;;;4991958;28;20639;-69
2023/11/03 10:20:28;;;;;;;4.82;1.40;;;8.00;99.90;;;;;;4994361;28;20227;-69
2023/11/03 10:23:25;;;;;;;1.55;1.08;;;8.10;99.90;;;;;;4994614;28;20206;-71
2023/11/03 10:25:54;;;;;;;1.27;0.90;;;8.10;99.90;;;;;;4993507;28;20253;-70
2023/11/03 10:28:24;;;;;;;1.40;1.27;;;8.20;99.90;;;;;;4994147;28;20554;-68
2023/11/03 10:30:56;;;;;;;1.67;0.90;;;8.20;99.90;;;;;;4993849;28;20227;-66
2023/11/03 10:33:24;;;;;;;1.00;0.90;;;8.30;99.90;;;;;;4995214;28;20219;-64
2023/11/03 10:35:53;;;;;;;2.95;1.48;;;8.30;99.90;;;;;;4993368;28;20254;-67
2023/11/03 10:38:20;;;;;;;2.55;1.42;;;8.30;99.90;;;;;;4994507;28;20218;-70
2023/11/03 10:40:47;;;;;;;2.13;1.10;;;8.30;99.90;;;;;;4994027;28;20238;-71
2023/11/03 10:43:14;;;;;;;1.10;0.80;;;8.30;99.90;;;;;;4994468;28;20223;-68
2023/11/03 10:45:49;;;;;;;3.55;1.13;;;8.30;99.90;;;;;;4994026;28;20223;-71
2023/11/03 10:48:25;;;;;;;2.05;1.00;;;8.40;99.90;;;;;;4993838;28;20238;-65
2023/11/03 10:50:59;;;;;;;1.00;0.90;;;8.40;99.90;;;;;;4993781;28;20235;-66
2023/11/03 10:53:37;;;;;;;1.27;0.90;;;8.40;99.90;;;;;;4994514;28;20208;-65
2023/11/03 10:56:06;;;;;;;1.10;1.00;;;8.40;99.90;;;;;;4994080;28;20738;-64
2023/11/03 10:58:34;;;;;;;1.00;0.90;;;8.50;99.90;;;;;;4990381;28;20302;-64
2023/11/03 11:01:07;;;;;;;1.77;0.90;;;8.50;99.90;;;;;;4993239;28;20664;-67
2023/11/03 11:03:43;;;;;;;2.75;1.00;;;8.40;99.90;;;;;;4990604;28;20216;-64
2023/11/03 11:06:19;;;;;;;1.00;0.90;;;8.40;99.90;;;;;;4993336;28;20726;-66
2023/11/03 11:08:47;;;;;;;1.10;0.88;;;8.30;99.90;;;;;;4992988;28;20211;-66
2023/11/03 11:11:15;;;;;;;1.02;0.93;;;8.40;99.90;;;;;;4993515;28;20322;-66
2023/11/03 11:13:43;;;;;;;1.00;0.90;;;8.40;99.90;;;;;;4993203;28;20207;-66
2023/11/03 11:16:11;;;;;;;1.55;1.02;;;8.40;99.90;;;;;;4993249;28;20207;-66
2023/11/03 11:18:52;;;;;;;1.42;1.00;;;8.40;99.90;;;;;;4992864;28;20302;-66
2023/11/03 11:21:30;;;;;;;2.55;1.08;;;8.40;99.90;;;;;;4993552;28;20312;-66
2023/11/03 11:23:56;;;;;;;0.88;0.70;;;8.40;99.90;;;;;;4986050;28;20206;-66
2023/11/03 11:26:26;;;;;;;1.00;0.90;;;8.40;99.90;;;;;;4983310;28;20310;-66
2023/11/03 11:28:53;;;;;;;3.95;1.10;;;8.40;99.90;;;;;;4984491;28;20210;-66
2023/11/03 11:31:39;;;;;;;1.42;1.00;;;8.40;99.90;;;;;;4984317;28;20239;-66
2023/11/03 11:34:12;;;;;;;0.70;0.60;;;8.40;99.90;;;;;;4981945;28;20199;-66
2023/11/03 11:36:40;;;;;;;1.23;1.13;;;8.40;99.90;;;;;;4989760;28;20235;-66
2023/11/03 11:39:16;;;;;;;1.10;0.80;;;8.40;99.90;;;;;;4992772;28;20200;-66
2023/11/03 11:41:50;;;;;;;0.80;0.70;;;8.40;99.90;;;;;;4990444;28;20227;-66
2023/11/03 11:44:19;;;;;;;1.50;0.70;;;8.40;99.90;;;;;;4993429;28;20211;-66
2023/11/03 11:46:51;;;;;;;0.80;0.70;;;8.40;99.90;;;;;;4992630;28;20223;-67
2023/11/03 11:49:22;;;;;;;1.00;0.70;;;8.40;99.90;;;;;;4992557;28;20254;-66
2023/11/03 11:51:50;;;;;;;2.13;0.82;;;8.40;99.90;;;;;;4992204;28;20578;-65
2023/11/03 11:54:18;;;;;;;2.33;0.82;;;8.50;99.90;;;;;;4992884;28;20215;-66
2023/11/03 11:56:45;;;;;;;0.93;0.77;;;8.50;99.90;;;;;;4992325;28;20215;-65
2023/11/03 11:59:16;;;;;;;0.93;0.70;;;8.60;99.90;;;;;;4992762;28;20215;-67
2023/11/03 12:01:43;;;;;;;1.10;0.93;;;8.60;99.90;;;;;;4992516;28;20227;-68
2023/11/03 12:04:11;;;;;;;0.80;0.70;;;8.70;99.90;;;;;;4992077;28;20207;-67
2023/11/03 12:06:41;;;;;;;0.80;0.77;;;8.70;99.90;;;;;;4992352;28;20247;-67
2023/11/03 12:09:11;;;;;;;1.10;0.85;;;8.70;99.90;;;;;;4988815;28;20291;-67
2023/11/03 12:11:42;;;;;;;1.23;0.93;;;8.70;99.90;;;;;;4992147;28;20642;-67
2023/11/03 12:14:09;;;;;;;0.80;0.60;;;8.70;99.90;;;;;;4992153;28;20215;-67
2023/11/03 12:16:36;;;;;;;0.80;0.60;;;8.70;99.90;;;;;;4992128;28;20254;-67
2023/11/03 12:19:03;;;;;;;0.90;0.70;;;8.60;99.90;;;;;;4991463;28;20203;-67
2023/11/03 12:21:30;;;;;;;0.80;0.70;;;8.70;99.90;;;;;;4992642;28;20521;-67
2023/11/03 12:24:01;;;;;;;0.90;0.70;;;8.70;99.90;;;;;;4992160;28;20216;-67
2023/11/03 12:26:29;;;;;;;0.90;0.70;;;8.70;99.90;;;;;;4992208;28;20277;-68
2023/11/03 12:29:28;;;;;;;0.90;0.80;;;8.70;99.90;;;;;;4992125;28;20690;-66
2023/11/03 12:31:55;;;;;;;0.80;0.70;;;8.70;99.90;;;;;;4989897;28;20227;-67
2023/11/03 12:34:21;;;;;;;0.80;0.70;;;8.60;99.90;;;;;;4992004;28;20610;-67
2023/11/03 12:36:48;;;;;;;1.20;0.80;;;8.70;99.90;;;;;;4990258;28;20199;-66
2023/11/03 12:39:18;;;;;;;0.80;0.70;;;8.70;99.90;;;;;;4991972;28;20210;-67
2023/11/03 12:41:44;;;;;;;0.80;0.70;;;8.60;99.90;;;;;;4991968;28;20322;-67
2023/11/03 12:44:11;;;;;;;0.82;0.70;;;8.60;99.90;;;;;;4992130;28;20203;-66
2023/11/03 12:46:46;;;;;;;1.00;0.73;;;8.60;99.90;;;;;;4991278;28;20237;-69
2023/11/03 12:49:14;;;;;;;0.90;0.70;;;8.60;99.90;;;;;;4991737;28;20238;-71
2023/11/03 12:51:42;;;;;;;1.42;0.90;;;8.60;99.90;;;;;;4992201;28;20227;-69
2023/11/03 12:54:14;;;;;;;1.20;0.70;;;8.60;99.90;;;;;;4988638;28;20215;-66
2023/11/03 12:56:50;;;;;;;1.33;0.75;;;8.60;99.90;;;;;;4990454;28;20265;-69
2023/11/03 12:59:21;;;;;;;1.27;0.80;;;8.60;99.90;;;;;;4991418;28;20211;-67
2023/11/03 13:01:56;;;;;;;1.63;0.90;;;8.60;99.90;;;;;;4989945;28;20223;-67
2023/11/03 13:04:23;;;;;;;1.30;0.80;;;8.70;99.90;;;;;;4991589;28;20211;-67
2023/11/03 13:06:57;;;;;;;1.00;0.88;;;8.70;99.90;;;;;;4990514;28;20317;-67
2023/11/03 13:09:24;;;;;;;1.52;0.80;;;8.80;99.90;;;;;;4991511;28;20207;-69
2023/11/03 13:11:55;;;;;;;1.50;0.80;;;8.90;99.90;;;;;;4990201;28;20240;-69
2023/11/03 13:14:23;;;;;;;0.80;0.70;;;8.90;99.90;;;;;;4980209;28;20207;-68
2023/11/03 13:16:51;;;;;;;1.00;0.80;;;8.90;99.90;;;;;;4984001;28;20207;-68
2023/11/03 13:19:19;;;;;;;1.40;0.93;;;8.80;99.90;;;;;;4980162;28;20234;-69
2023/11/03 13:21:46;;;;;;;0.80;0.80;;;8.80;99.90;;;;;;4982073;28;20235;-69
2023/11/03 13:24:14;;;;;;;0.80;0.70;;;8.70;99.90;;;;;;4983212;28;20661;-69
2023/11/03 13:26:42;;;;;;;0.75;0.70;;;8.60;99.90;;;;;;4977671;28;20224;-71
2023/11/03 13:29:12;;;;;;;1.08;0.98;;;8.60;99.90;;;;;;4986118;28;20203;-69
2023/11/03 13:31:41;;;;;;;1.00;0.82;;;8.60;99.90;;;;;;4987410;28;20242;-69
2023/11/03 13:34:12;;;;;;;0.98;0.73;;;8.50;99.90;;;;;;4985622;28;20251;-70
2023/11/03 13:36:41;;;;;;;1.55;0.90;;;8.60;99.90;;;;;;4987386;28;20665;-69
2023/11/03 13:39:10;;;;;;;1.23;0.88;;;8.60;99.90;;;;;;4990770;28;20648;-68
2023/11/03 13:41:38;;;;;;;0.80;0.70;;;8.60;99.90;;;;;;4982336;28;20232;-66
2023/11/03 13:44:07;;;;;;;0.80;0.60;;;8.60;99.90;;;;;;4990369;28;20211;-66
2023/11/03 13:46:39;;;;;;;1.08;0.90;;;8.50;99.90;;;;;;4990938;28;20310;-67
2023/11/03 13:49:07;;;;;;;2.10;0.80;;;8.50;99.90;;;;;;4980204;28;20212;-69
2023/11/03 13:51:35;;;;;;;0.80;0.77;;;8.40;99.90;;;;;;4985151;28;20219;-65
2023/11/03 13:54:16;;;;;;;0.80;0.70;;;8.40;99.90;;;;;;4985854;28;20573;-69
2023/11/03 13:56:43;;;;;;;1.17;0.80;;;8.50;99.90;;;;;;4986882;28;20302;-68
2023/11/03 13:59:11;;;;;;;0.80;0.70;;;8.50;99.90;;;;;;4983869;28;20211;-68
2023/11/03 14:01:39;;;;;;;1.52;1.02;;;8.50;99.90;;;;;;4976162;28;20726;-67
2023/11/03 14:04:07;;;;;;;1.63;1.00;;;8.50;99.90;;;;;;4987712;28;20243;-67
2023/11/03 14:06:34;;;;;;;1.33;0.90;;;8.50;99.90;;;;;;4990829;28;20231;-69
2023/11/03 14:09:02;;;;;;;1.10;0.90;;;8.50;99.90;;;;;;4990454;28;20211;-67
2023/11/03 14:11:29;;;;;;;1.88;0.80;;;8.50;99.90;;;;;;4984860;28;20720;-66
2023/11/03 14:13:56;;;;;;;1.17;0.75;;;8.50;99.90;;;;;;4990627;28;20601;-66
2023/11/03 14:16:23;;;;;;;2.03;1.00;;;8.50;99.90;;;;;;4990878;28;20200;-65
2023/11/03 14:18:54;;;;;;;1.08;0.85;;;8.40;99.90;;;;;;4988179;28;20210;-70
2023/11/03 14:21:26;;;;;;;0.80;0.70;;;8.40;99.90;;;;;;4989495;28;20251;-68
2023/11/03 14:23:56;;;;;;;0.85;0.75;;;8.40;99.90;;;;;;4990506;28;20610;-67
2023/11/03 14:26:25;;;;;;;1.00;0.90;;;8.40;99.90;;;;;;4990333;28;20844;-72
2023/11/03 14:28:52;;;;;;;0.80;0.60;;;8.40;99.90;;;;;;4991007;28;20672;-73
2023/11/03 14:31:19;;;;;;;0.70;0.60;;;8.40;99.90;;;;;;4990327;28;20230;-72
2023/11/03 14:33:48;;;;;;;0.80;0.70;;;8.40;99.90;;;;;;4990863;28;20207;-70
2023/11/03 14:36:19;;;;;;;1.00;0.80;;;8.40;99.90;;;;;;4992476;28;20786;-71
2023/11/03 14:38:46;;;;;;;1.10;0.90;;;8.40;99.90;;;;;;4994051;28;20211;-73
2023/11/03 14:41:13;;;;;;;1.20;0.90;;;8.40;99.90;;;;;;4993437;28;20227;-71
2023/11/03 14:43:42;;;;;;;1.80;1.13;;;8.40;99.90;;;;;;4994522;28;20215;-73
2023/11/03 14:46:11;;;;;;;3.28;1.20;;;8.40;99.90;;;;;;4993500;28;20223;-72
2023/11/03 14:48:39;;;;;;;1.70;1.10;;;8.40;99.90;;;;;;4992888;28;20231;-68
2023/11/03 14:51:06;;;;;;;3.83;1.55;;;8.40;99.90;;;;;;4993538;28;20386;-68
2023/11/03 14:53:34;;;;;;;2.65;0.95;;;8.30;99.90;;;;;;4994145;28;20258;-68
2023/11/03 14:56:02;;;;;;;1.30;1.00;;;8.30;99.90;;;;;;4987085;28;20204;-68
2023/11/03 14:58:28;;;;;;;1.48;1.20;;;8.40;99.90;;;;;;4978616;28;20216;-68
2023/11/03 15:01:02;;;;;;;1.30;1.20;;;8.30;99.90;;;;;;4977700;28;20228;-73
2023/11/03 15:03:32;;;;;;;2.08;1.50;;;8.30;99.90;;;;;;4992910;28;20203;-66
2023/11/03 15:06:02;;;;;;;2.25;1.42;;;8.30;99.90;;;;;;4993052;28;20298;-66
2023/11/03 15:08:29;;;;;;;2.35;1.13;;;8.30;99.90;;;;;;4993714;28;20213;-66
2023/11/03 15:10:58;;;;;;;1.42;1.20;;;8.30;99.90;;;;;;4993478;28;20310;-73
2023/11/03 15:13:27;;;;;;;1.83;0.98;;;8.20;99.90;;;;;;4992585;28;20317;-71
2023/11/03 15:15:54;;;;;;;1.40;1.25;;;8.20;99.90;;;;;;4993458;28;20306;-71
2023/11/03 15:18:20;;;;;;;1.92;1.05;;;8.20;99.90;;;;;;4992822;28;20705;-71
2023/11/03 15:20:48;;;;;;;1.38;0.95;;;8.20;99.90;;;;;;4993791;28;20223;-67
2023/11/03 15:23:15;;;;;;;0.90;0.80;;;8.20;99.90;;;;;;4993406;28;20273;-66
2023/11/03 15:25:42;;;;;;;1.23;1.13;;;8.10;99.90;;;;;;4993635;28;20200;-67
2023/11/03 15:28:12;;;;;;;2.00;0.98;;;8.10;99.90;;;;;;4992874;28;20249;-67
2023/11/03 15:30:39;;;;;;;1.00;0.80;;;8.10;99.90;;;;;;4993579;28;20249;-70
2023/11/03 15:33:06;;;;;;;1.00;0.90;;;8.00;99.90;;;;;;4993232;28;20203;-66
2023/11/03 15:35:33;;;;;;;1.00;0.80;;;8.00;99.90;;;;;;4993365;28;20203;-65
2023/11/03 15:38:00;;;;;;;4.82;1.00;;;7.90;99.90;;;;;;4992920;28;20200;-65
2023/11/03 15:40:26;;;;;;;0.90;0.80;;;7.90;99.90;;;;;;4993119;28;20684;-65
2023/11/03 15:42:53;;;;;;;1.00;0.90;;;7.90;99.90;;;;;;4993477;28;20206;-65
2023/11/03 15:45:21;;;;;;;0.98;0.80;;;7.90;99.90;;;;;;4992603;28;20225;-65
2023/11/03 15:47:50;;;;;;;0.80;0.80;;;7.90;99.90;;;;;;4991782;28;20219;-65
2023/11/03 15:50:19;;;;;;;0.85;0.73;;;7.90;99.90;;;;;;4992724;28;20308;-65
2023/11/03 15:52:49;;;;;;;1.13;1.02;;;7.90;99.90;;;;;;4993306;28;20206;-66
2023/11/03 15:55:16;;;;;;;1.42;1.00;;;7.90;99.90;;;;;;4992838;28;20586;-65
2023/11/03 15:57:46;;;;;;;5.75;1.00;;;7.90;99.90;;;;;;4992853;28;20203;-66
2023/11/03 16:00:14;;;;;;;1.00;0.90;;;7.90;99.90;;;;;;4992486;28;20756;-66
2023/11/03 16:02:43;;;;;;;2.33;1.05;;;7.80;99.90;;;;;;4992980;28;20209;-66
2023/11/03 16:05:11;;;;;;;1.75;1.00;;;7.80;99.90;;;;;;4991872;28;20460;-66
2023/11/03 16:07:38;;;;;;;1.17;0.90;;;7.80;99.90;;;;;;4992570;28;20226;-66
2023/11/03 16:10:06;;;;;;;1.25;0.80;;;7.80;99.90;;;;;;4992588;28;20208;-66
2023/11/03 16:12:33;;;;;;;1.25;1.13;;;7.80;99.90;;;;;;4992836;28;20227;-66
2023/11/03 16:15:00;;;;;;;1.02;0.82;;;7.80;99.90;;;;;;4992122;28;20456;-66
2023/11/03 16:17:28;;;;;;;2.15;1.25;;;7.80;99.90;;;;;;4992003;28;20677;-66
2023/11/03 16:19:57;;;;;;;1.63;1.10;;;7.80;99.90;;;;;;4990402;28;20234;-66
2023/11/03 16:22:24;;;;;;;1.30;0.93;;;7.70;99.90;;;;;;4991654;28;20242;-66
2023/11/03 16:24:51;;;;;;;1.83;1.15;;;7.70;99.90;;;;;;4992167;28;20231;-66
2023/11/03 16:27:17;;;;;;;3.30;1.05;;;7.70;99.90;;;;;;4991448;28;20605;-66
2023/11/03 16:29:44;;;;;;;0.80;0.70;;;7.60;99.90;;;;;;4992160;28;20283;-66
2023/11/03 16:32:12;;;;;;;1.20;0.90;;;7.60;99.90;;;;;;4990946;28;20242;-66
2023/11/03 16:34:39;;;;;;;1.65;1.35;;;7.50;99.90;;;;;;4987921;28;20229;-66
2023/11/03 16:37:07;;;;;;;3.72;1.25;;;7.50;99.90;;;;;;4988596;28;20209;-63
2023/11/03 16:39:35;;;;;;;2.45;1.13;;;7.50;99.90;;;;;;4984924;28;20217;-64
2023/11/03 16:42:02;;;;;;;1.00;0.90;;;7.50;99.90;;;;;;4992136;28;20223;-64
2023/11/03 16:44:28;;;;;;;1.30;0.95;;;7.50;99.90;;;;;;4991660;28;20700;-64
2023/11/03 16:46:55;;;;;;;1.38;0.80;;;7.50;99.90;;;;;;4991274;28;20227;-65
2023/11/03 16:49:22;;;;;;;1.27;1.02;;;7.50;99.90;;;;;;4991495;28;20257;-63
2023/11/03 16:51:49;;;;;;;2.00;1.05;;;7.50;99.90;;;;;;4991634;28;20285;-65
2023/11/03 16:54:17;;;;;;;1.92;1.00;;;7.40;99.90;;;;;;4981818;28;20212;-65
2023/11/03 16:56:44;;;;;;;1.40;1.10;;;7.40;99.90;;;;;;4972881;28;20204;-65
2023/11/03 16:59:12;;;;;;;1.08;0.90;;;7.30;99.90;;;;;;4971189;28;20736;-65
2023/11/03 17:01:39;;;;;;;1.20;1.00;;;7.30;99.90;;;;;;4984181;28;20785;-66
2023/11/03 17:04:08;;;;;;;1.10;1.00;;;7.20;99.90;;;;;;4990656;28;20203;-67
2023/11/03 17:06:35;;;;;;;2.22;1.05;;;7.20;99.90;;;;;;4983348;28;20627;-66
2023/11/03 17:09:02;;;;;;;1.88;1.55;;;7.20;99.90;;;;;;4991779;28;20199;-65
2023/11/03 17:11:31;;;;;;;2.55;1.40;;;7.10;99.90;;;;;;4990891;28;20233;-66
2023/11/03 17:13:58;;;;;;;1.58;1.05;;;7.10;99.90;;;;;;4990932;28;20214;-66
2023/11/03 17:16:24;;;;;;;1.13;0.90;;;7.10;99.90;;;;;;4990819;28;20203;-65
2023/11/03 17:18:51;;;;;;;1.48;1.30;;;7.10;99.90;;;;;;4991165;28;20203;-65